Time;durP1;ratioP1;P1;durP2;ratioP2;P2;SDS_P1;SDS_P2;PMS_P1;PMS_P2;Temp;Humidity;BMP_temperature;BMP_pressure;BME280_temperature;BME280_humidity;BME280_pressure;Samples;Min_cycle;Max_cycle;Signal;HPM_P1;HPM_P2
2021/07/26 00:00:46;;;;;;;5.53;3.05;;;;;;;21.01;68.08;99282.88;2212475;40;20030;-81
2021/07/26 00:02:19;;;;;;;4.95;3.00;;;;;;;21.01;67.83;99282.88;2215609;40;20037;-80
2021/07/26 00:03:53;;;;;;;5.78;3.00;;;;;;;21.04;67.70;99287.84;2210778;40;20061;-82
2021/07/26 00:05:28;;;;;;;6.28;3.17;;;;;;;21.08;67.61;99281.94;2208619;40;20047;-80
2021/07/26 00:09:39;;;;;;;4.97;3.35;;;;;;;21.04;67.64;99276.16;2212568;40;20046;-81
2021/07/26 00:11:12;;;;;;;5.72;3.33;;;;;;;21.01;67.54;99277.44;2215780;40;20189;-80
2021/07/26 00:12:45;;;;;;;5.93;3.75;;;;;;;20.98;67.52;99283.34;2213986;40;20025;-81
2021/07/26 00:14:23;;;;;;;5.30;3.10;;;;;;;20.96;67.56;99281.91;2210433;40;20046;-81
2021/07/26 00:16:05;;;;;;;7.63;3.83;;;;;;;20.94;67.89;99284.03;2211679;40;20046;-82
2021/07/26 00:17:37;;;;;;;6.05;3.72;;;;;;;20.85;68.16;99281.66;2204300;40;20027;-80
2021/07/26 00:19:09;;;;;;;5.75;3.22;;;;;;;20.81;68.42;99287.75;2204509;40;20318;-80
2021/07/26 00:20:48;;;;;;;6.13;3.97;;;;;;;20.76;68.50;99290.34;2212820;40;20089;-81
2021/07/26 00:22:27;;;;;;;5.53;3.05;;;;;;;20.70;68.97;99283.94;2214320;40;20042;-80
2021/07/26 00:23:59;;;;;;;6.38;3.50;;;;;;;20.68;69.24;99281.44;2212882;40;20058;-81
2021/07/26 00:25:30;;;;;;;8.43;3.88;;;;;;;20.66;69.13;99289.00;2211724;40;20325;-80
2021/07/26 00:27:02;;;;;;;6.05;3.63;;;;;;;20.67;69.02;99284.38;2214488;40;20062;-80
2021/07/26 00:28:33;;;;;;;5.05;3.40;;;;;;;20.64;69.21;99288.38;2214214;40;20042;-81
2021/07/26 00:32:58;;;;;;;5.80;3.15;;;;;;;20.60;69.06;99291.78;2216507;40;20037;-82
2021/07/26 00:35:10;;;;;;;6.47;3.55;;;;;;;20.65;68.95;99281.91;2215702;40;20042;-81
2021/07/26 00:36:55;;;;;;;5.97;3.97;;;;;;;20.65;68.79;99286.50;2214462;40;20080;-81
2021/07/26 00:38:30;;;;;;;7.03;3.33;;;;;;;20.66;68.83;99286.28;2202176;40;20388;-81
2021/07/26 00:40:08;;;;;;;5.10;3.08;;;;;;;20.66;68.84;99290.88;2200910;40;20035;-80
2021/07/26 00:41:58;;;;;;;5.75;3.13;;;;;;;20.65;68.90;99290.06;2201171;40;20074;-81
2021/07/26 00:43:39;;;;;;;5.40;3.58;;;;;;;20.65;68.69;99290.06;2205151;40;20038;-81
2021/07/26 00:45:14;;;;;;;4.88;3.03;;;;;;;20.60;68.88;99284.47;2201943;40;20124;-80
2021/07/26 00:46:46;;;;;;;5.28;3.40;;;;;;;20.56;69.10;99291.44;2201313;40;20043;-80
2021/07/26 00:48:18;;;;;;;5.13;3.63;;;;;;;20.51;69.25;99294.81;2205716;40;20065;-81
2021/07/26 00:49:51;;;;;;;5.82;3.40;;;;;;;20.47;69.32;99301.75;2205905;40;20063;-79
2021/07/26 00:51:23;;;;;;;5.88;3.35;;;;;;;20.47;69.49;99298.22;2207718;40;20030;-80
2021/07/26 00:52:55;;;;;;;5.60;3.80;;;;;;;20.46;69.43;99297.38;2211439;40;20038;-80
2021/07/26 00:54:35;;;;;;;4.70;2.97;;;;;;;20.50;69.46;99295.06;2214037;40;20471;-80
2021/07/26 00:56:10;;;;;;;8.60;3.42;;;;;;;20.52;69.41;99298.34;2215506;40;20031;-81
2021/07/26 00:57:45;;;;;;;4.97;3.33;;;;;;;20.49;69.40;99291.50;2213125;40;20055;-81
2021/07/26 00:59:22;;;;;;;9.43;3.72;;;;;;;20.47;69.64;99295.50;2210023;40;20069;-81
2021/07/26 01:00:58;;;;;;;6.03;3.70;;;;;;;20.40;69.57;99290.97;2200773;40;20097;-83
2021/07/26 01:02:45;;;;;;;7.45;3.95;;;;;;;20.32;69.80;99298.63;2200748;40;20027;-81
2021/07/26 01:04:23;;;;;;;4.93;3.20;;;;;;;20.30;70.13;99298.84;2202480;40;20035;-81
2021/07/26 01:05:56;;;;;;;5.35;3.58;;;;;;;20.24;70.29;99311.44;2201727;40;20039;-81
2021/07/26 01:07:55;;;;;;;6.53;3.63;;;;;;;20.16;70.57;99314.44;2206783;40;20089;-80
2021/07/26 01:10:14;;;;;;;6.57;3.47;;;;;;;20.04;71.04;99310.81;2215911;40;20045;-81
2021/07/26 01:12:31;;;;;;;5.50;3.72;;;;;;;20.03;70.96;99311.88;2216016;40;20034;-81
2021/07/26 01:14:58;;;;;;;6.03;4.00;;;;;;;20.03;71.23;99312.69;2215949;40;20049;-81
2021/07/26 01:16:53;;;;;;;6.63;3.63;;;;;;;20.05;70.94;99316.00;2214846;40;20038;-81
2021/07/26 01:18:50;;;;;;;6.70;3.50;;;;;;;20.09;71.05;99314.53;2202886;40;20075;-81
2021/07/26 01:22:55;;;;;;;5.63;3.38;;;;;;;20.15;70.65;99311.94;2203186;40;20050;-81
2021/07/26 01:32:49;;;;;;;5.50;4.00;;;;;;;19.90;71.55;99310.13;2197110;40;20035;-81
2021/07/26 01:46:34;;;;;;;5.70;3.60;;;;;;;19.79;72.11;99320.63;2201730;40;20035;-80
2021/07/26 01:48:13;;;;;;;6.03;3.40;;;;;;;19.78;72.46;99313.53;2201526;40;20039;-79
2021/07/26 01:50:03;;;;;;;5.28;3.45;;;;;;;19.77;72.36;99316.47;2202241;40;20041;-80
2021/07/26 01:51:58;;;;;;;7.80;3.42;;;;;;;19.77;72.28;99314.59;2202021;40;20060;-80
2021/07/26 01:53:31;;;;;;;5.60;3.70;;;;;;;19.71;72.67;99312.78;2201324;40;20035;-79
2021/07/26 01:55:14;;;;;;;5.78;3.80;;;;;;;19.68;72.86;99315.91;2198997;40;20055;-78
2021/07/26 01:56:49;;;;;;;7.63;3.55;;;;;;;19.62;72.99;99317.63;2199493;40;20057;-79
2021/07/26 01:58:32;;;;;;;6.07;3.55;;;;;;;19.60;73.18;99308.06;2206319;40;20050;-79
2021/07/26 02:00:09;;;;;;;5.50;3.67;;;;;;;19.55;73.27;99313.34;2206778;40;20074;-80
2021/07/26 02:02:13;;;;;;;5.35;3.75;;;;;;;19.54;73.08;99317.09;2198918;40;20039;-80
2021/07/26 02:26:10;;;;;;;6.55;3.83;;;;;;;19.11;74.81;99319.50;2200875;40;20047;-81
2021/07/26 02:30:17;;;;;;;6.50;4.50;;;;;;;19.13;75.33;99339.06;2198272;40;20044;-80
2021/07/26 02:33:54;;;;;;;6.18;4.10;;;;;;;19.10;75.47;99336.78;2202716;40;20058;-80
2021/07/26 02:35:58;;;;;;;5.40;3.83;;;;;;;19.13;75.33;99338.22;2209914;40;20034;-80
2021/07/26 02:37:31;;;;;;;6.78;3.67;;;;;;;19.09;75.71;99339.72;2211889;40;20041;-81
2021/07/26 02:39:36;;;;;;;9.77;4.10;;;;;;;19.06;75.47;99338.28;2212156;40;20041;-80
2021/07/26 02:41:15;;;;;;;7.10;3.85;;;;;;;19.04;75.54;99334.13;2212251;40;20054;-81
2021/07/26 02:43:05;;;;;;;6.07;3.53;;;;;;;19.06;75.58;99334.72;2211874;40;20128;-80
2021/07/26 02:44:40;;;;;;;11.25;4.07;;;;;;;19.01;75.58;99338.09;2211857;40;20037;-79
2021/07/26 02:46:27;;;;;;;5.97;3.72;;;;;;;19.00;75.77;99344.56;2213739;40;20050;-80
2021/07/26 02:57:44;;;;;;;7.63;4.53;;;;;;;18.96;76.13;99356.88;2215464;40;20038;-80
2021/07/26 02:59:21;;;;;;;7.25;3.90;;;;;;;18.92;76.15;99359.16;2204070;40;20106;-81
2021/07/26 03:01:21;;;;;;;7.05;4.53;;;;;;;18.93;76.27;99354.59;2207453;40;20042;-81
2021/07/26 03:03:16;;;;;;;6.95;4.30;;;;;;;18.92;76.57;99358.31;2203562;40;20093;-80
2021/07/26 03:04:59;;;;;;;6.60;4.25;;;;;;;18.95;76.26;99349.81;2206923;40;20048;-80
2021/07/26 03:06:32;;;;;;;6.85;4.00;;;;;;;18.94;76.53;99345.44;2201253;40;20087;-80
2021/07/26 03:08:08;;;;;;;8.02;5.05;;;;;;;19.00;76.23;99355.38;2206876;40;20034;-80
2021/07/26 03:09:53;;;;;;;5.93;4.15;;;;;;;19.05;76.20;99358.28;2201561;40;20103;-80
2021/07/26 03:11:36;;;;;;;8.23;4.18;;;;;;;19.10;75.80;99355.75;2201991;40;20054;-79
2021/07/26 03:13:12;;;;;;;5.80;3.80;;;;;;;19.13;75.58;99349.91;2201577;40;20411;-80
2021/07/26 03:14:54;;;;;;;7.55;3.83;;;;;;;19.20;75.19;99351.72;2206298;40;20092;-80
2021/07/26 03:16:33;;;;;;;5.90;3.70;;;;;;;19.20;75.26;99346.31;2201840;40;20046;-80
2021/07/26 03:18:05;;;;;;;8.00;3.90;;;;;;;19.22;74.87;99341.50;2203022;40;20039;-80
2021/07/26 03:19:52;;;;;;;5.22;3.80;;;;;;;19.30;74.61;99361.06;2213596;40;20045;-80
2021/07/26 03:21:25;;;;;;;6.82;4.20;;;;;;;19.31;74.78;99357.31;2208668;40;20030;-80
2021/07/26 03:23:20;;;;;;;5.93;3.45;;;;;;;19.31;74.61;99364.59;2205721;40;20112;-79
2021/07/26 03:24:51;;;;;;;5.88;3.92;;;;;;;19.28;74.21;99365.00;2210820;40;20058;-79
2021/07/26 03:26:24;;;;;;;5.75;3.25;;;;;;;19.28;74.36;99365.88;2212270;40;20458;-80
2021/07/26 03:27:57;;;;;;;5.43;3.40;;;;;;;19.36;73.96;99369.34;2208942;40;20163;-79
2021/07/26 03:29:32;;;;;;;5.20;3.30;;;;;;;19.40;74.09;99371.41;2206066;40;20054;-79
2021/07/26 03:31:06;;;;;;;7.15;3.85;;;;;;;19.44;73.40;99372.63;2205530;40;20079;-80
2021/07/26 03:32:39;;;;;;;8.15;3.60;;;;;;;19.47;73.50;99372.19;2209489;40;20049;-79
2021/07/26 03:34:21;;;;;;;5.85;3.25;;;;;;;19.53;73.25;99373.19;2211051;40;20030;-80
2021/07/26 03:36:10;;;;;;;5.72;3.33;;;;;;;19.54;72.88;99374.03;2199079;40;20050;-79
2021/07/26 03:37:45;;;;;;;5.22;3.63;;;;;;;19.50;72.68;99376.34;2199523;40;20042;-80
2021/07/26 03:39:21;;;;;;;7.35;3.40;;;;;;;19.49;72.81;99382.81;2200213;40;20037;-79
2021/07/26 03:41:12;;;;;;;6.63;3.17;;;;;;;19.53;72.66;99380.50;2209922;40;20038;-80
2021/07/26 03:42:53;;;;;;;6.55;3.15;;;;;;;19.55;72.27;99379.22;2208450;40;20033;-80
2021/07/26 03:44:25;;;;;;;5.07;2.80;;;;;;;19.60;72.12;99381.25;2209537;40;20135;-79
2021/07/26 03:47:56;;;;;;;5.65;3.55;;;;;;;19.68;72.14;99380.19;2203886;40;20047;-79
2021/07/26 03:49:33;;;;;;;4.95;2.90;;;;;;;19.68;71.72;99378.28;2205798;40;20053;-80
2021/07/26 03:53:14;;;;;;;5.63;3.50;;;;;;;19.70;71.72;99372.63;2207767;40;20083;-80
2021/07/26 03:54:49;;;;;;;5.55;3.15;;;;;;;19.67;71.79;99379.31;2205523;40;20340;-79
2021/07/26 03:56:22;;;;;;;5.35;3.38;;;;;;;19.64;71.96;99366.25;2212308;40;20042;-80
2021/07/26 03:58:12;;;;;;;5.80;3.67;;;;;;;19.67;71.62;99373.91;2210677;40;20042;-79
2021/07/26 03:59:52;;;;;;;5.40;3.17;;;;;;;19.67;71.71;99371.19;2200450;40;20039;-81
2021/07/26 04:09:54;;;;;;;7.20;3.42;;;;;;;19.66;71.87;99374.94;2267096;39;20375;-80
2021/07/26 04:11:29;;;;;;;6.47;3.30;;;;;;;19.64;71.65;99377.91;2259749;39;20726;-80
2021/07/26 04:13:01;;;;;;;5.75;3.38;;;;;;;19.58;71.98;99373.38;2260487;39;20066;-80
2021/07/26 04:14:36;;;;;;;9.48;3.97;;;;;;;19.51;72.56;99385.31;2259528;39;20030;-80
2021/07/26 04:16:08;;;;;;;5.88;4.15;;;;;;;19.46;72.89;99391.38;2254228;39;20027;-80
2021/07/26 04:17:39;;;;;;;6.88;4.10;;;;;;;19.42;73.00;99396.41;2253601;39;20127;-80
2021/07/26 04:19:11;;;;;;;7.47;3.63;;;;;;;19.41;73.27;99386.63;2246741;39;20027;-80
2021/07/26 04:20:43;;;;;;;5.53;3.35;;;;;;;19.44;73.15;99388.91;2248010;39;20051;-81
2021/07/26 04:22:14;;;;;;;5.53;3.30;;;;;;;19.49;73.14;99377.41;2250042;39;20028;-79
2021/07/26 04:23:46;;;;;;;6.25;4.15;;;;;;;19.54;72.87;99376.75;2256834;39;20081;-80
2021/07/26 04:25:19;;;;;;;5.88;3.88;;;;;;;19.58;72.70;99375.22;2256394;39;20104;-80
2021/07/26 04:26:50;;;;;;;5.90;3.65;;;;;;;19.61;72.73;99383.75;2253650;39;20401;-81
2021/07/26 04:28:28;;;;;;;6.90;3.95;;;;;;;19.60;72.50;99382.09;2254219;39;20039;-81
2021/07/26 04:29:58;;;;;;;7.30;4.75;;;;;;;19.53;72.60;99383.22;2246650;39;20031;-80
2021/07/26 04:31:31;;;;;;;6.55;3.88;;;;;;;19.48;72.97;99389.28;2247117;39;20031;-80
2021/07/26 04:33:02;;;;;;;6.70;4.30;;;;;;;19.43;73.30;99392.66;2252532;39;20027;-80
2021/07/26 04:34:33;;;;;;;10.18;4.38;;;;;;;19.40;73.40;99393.06;2253205;39;20042;-80
2021/07/26 04:36:05;;;;;;;5.85;3.80;;;;;;;19.39;73.52;99390.59;2252731;39;20336;-80
2021/07/26 04:37:36;;;;;;;6.80;3.80;;;;;;;19.40;73.52;99389.56;2253283;39;20035;-80
2021/07/26 04:39:08;;;;;;;6.78;3.72;;;;;;;19.43;73.43;99391.81;2253375;39;20450;-79
2021/07/26 04:40:41;;;;;;;7.40;4.18;;;;;;;19.45;73.04;99393.28;2252789;39;20035;-80
2021/07/26 04:42:13;;;;;;;9.25;4.45;;;;;;;19.48;73.29;99395.53;2253136;39;20031;-79
2021/07/26 04:43:46;;;;;;;8.57;3.97;;;;;;;19.52;73.06;99389.66;2253245;39;20119;-79
2021/07/26 04:45:18;;;;;;;8.25;4.22;;;;;;;19.56;72.83;99394.44;2253814;39;20027;-79
2021/07/26 04:46:49;;;;;;;6.70;4.20;;;;;;;19.61;72.80;99393.78;2252954;39;20019;-80
2021/07/26 04:48:20;;;;;;;6.40;4.20;;;;;;;19.64;72.44;99387.91;2253084;39;20074;-78
2021/07/26 05:31:40;;;;;;;7.35;4.28;;;;;;;19.84;71.91;99412.16;2228003;40;20041;-83
2021/07/26 05:35:07;;;;;;;6.03;3.90;;;;;;;19.77;72.22;99414.09;2210457;40;20124;-80
2021/07/26 05:36:45;;;;;;;6.65;3.40;;;;;;;19.80;72.13;99408.22;2213480;40;20058;-85
2021/07/26 05:38:16;;;;;;;7.68;3.97;;;;;;;19.86;72.33;99407.38;2214263;40;20037;-83
2021/07/26 05:40:27;;;;;;;7.95;3.97;;;;;;;19.87;72.14;99413.63;2229891;40;20487;-85
2021/07/26 05:47:54;;;;;;;7.05;4.05;;;;;;;19.89;71.71;99414.25;2213146;40;20046;-80
2021/07/26 05:57:10;;;;;;;7.00;3.97;;;;;;;19.97;71.49;99413.97;2248544;39;20031;-81
2021/07/26 05:58:54;;;;;;;6.88;3.80;;;;;;;19.95;71.52;99411.47;2246406;39;20040;-80
2021/07/26 06:02:41;;;;;;;8.95;4.15;;;;;;;19.90;71.83;99419.44;2223460;39;20040;-79
2021/07/26 06:07:30;;;;;;;15.25;4.47;;;;;;;20.18;71.06;99410.00;2235550;40;20052;-81
2021/07/26 06:09:15;;;;;;;8.18;5.13;;;;;;;20.17;71.22;99421.91;2238265;39;20404;-80
2021/07/26 06:10:57;;;;;;;14.25;4.78;;;;;;;20.25;70.95;99410.78;2248733;39;20031;-82
2021/07/26 06:12:29;;;;;;;6.47;4.00;;;;;;;20.25;70.83;99415.38;2245505;39;20020;-80
2021/07/26 06:14:01;;;;;;;8.30;4.25;;;;;;;20.28;70.68;99409.50;2249030;39;20381;-80
2021/07/26 06:15:44;;;;;;;5.65;3.35;;;;;;;20.33;70.71;99406.13;2248634;39;20038;-83
2021/07/26 06:17:47;;;;;;;10.63;4.30;;;;;;;20.37;70.60;99408.16;2247941;39;20034;-82
2021/07/26 06:22:42;;;;;;;6.60;3.88;;;;;;;20.52;70.41;99393.38;2218950;40;20041;-81
2021/07/26 06:24:15;;;;;;;6.57;3.85;;;;;;;20.57;70.25;99396.25;2223440;40;20065;-87
2021/07/26 06:25:47;;;;;;;6.47;3.78;;;;;;;20.64;69.85;99394.28;2226051;40;20025;-86
2021/07/26 06:27:21;;;;;;;7.15;4.03;;;;;;;20.72;69.43;99399.41;2231550;40;20033;-84
2021/07/26 06:28:52;;;;;;;6.55;3.80;;;;;;;20.81;69.29;99399.13;2229293;40;20053;-86
2021/07/26 06:30:24;;;;;;;7.82;4.47;;;;;;;20.82;68.71;99403.50;2230887;39;20041;-84
2021/07/26 06:31:58;;;;;;;6.13;3.60;;;;;;;20.86;68.47;99404.72;2229307;40;20036;-87
2021/07/26 06:33:46;;;;;;;;;;;;;;;;;;;;;
2021/07/26 06:38:12;;;;;;;6.47;4.03;;;;;;;21.00;68.21;99411.63;2172795;41;20051;-80
2021/07/26 06:40:06;;;;;;;6.90;3.83;;;;;;;21.02;67.91;99414.94;2217172;40;20073;-82
2021/07/26 06:41:55;;;;;;;6.60;3.33;;;;;;;21.00;67.98;99418.97;2228527;40;20040;-86
2021/07/26 06:43:28;;;;;;;6.07;3.88;;;;;;;21.07;67.90;99410.69;2228938;40;20025;-83
2021/07/26 06:44:59;;;;;;;9.93;4.18;;;;;;;21.14;67.92;99408.75;2231021;40;20072;-84
2021/07/26 06:46:30;;;;;;;5.28;3.20;;;;;;;21.21;67.51;99412.19;2229609;39;20095;-84
2021/07/26 06:48:02;;;;;;;6.80;3.28;;;;;;;21.26;67.12;99415.03;2226084;40;20036;-84
2021/07/26 06:49:34;;;;;;;6.20;3.60;;;;;;;21.30;66.63;99410.81;2230359;40;20044;-84
2021/07/26 06:51:06;;;;;;;5.75;3.17;;;;;;;21.32;66.73;99411.41;2231344;40;20025;-84
2021/07/26 06:52:38;;;;;;;8.18;3.78;;;;;;;21.38;66.53;99414.25;2227821;40;20084;-82
2021/07/26 06:54:46;;;;;;;5.10;3.00;;;;;;;21.46;66.23;99424.78;2228461;40;20044;-80
2021/07/26 06:56:44;;;;;;;5.93;3.30;;;;;;;21.50;65.96;99409.69;2223439;40;20063;-81
2021/07/26 06:58:15;;;;;;;7.30;3.38;;;;;;;21.51;66.11;99412.16;2214093;40;20029;-81
2021/07/26 06:59:48;;;;;;;9.07;4.05;;;;;;;21.65;65.76;99423.69;2226910;40;20143;-81
2021/07/26 07:04:14;;;;;;;8.13;3.83;;;;;;;21.98;64.97;99416.06;2223072;40;20045;-85
2021/07/26 07:05:46;;;;;;;8.55;3.58;;;;;;;22.03;64.83;99412.63;2192830;40;20067;-84
2021/07/26 07:07:21;;;;;;;6.93;3.42;;;;;;;22.05;64.34;99407.78;2221893;40;20032;-87
2021/07/26 07:14:00;;;;;;;6.20;3.53;;;;;;;22.16;63.67;99417.00;2205126;40;20058;-83
2021/07/26 07:15:34;;;;;;;6.15;3.90;;;;;;;22.28;63.64;99415.97;2210066;40;20040;-85
2021/07/26 07:17:06;;;;;;;7.50;3.70;;;;;;;22.39;63.20;99410.72;2220483;40;20052;-84
2021/07/26 07:18:56;;;;;;;7.35;3.63;;;;;;;22.56;63.02;99408.13;2227279;40;20452;-86
2021/07/26 07:20:33;;;;;;;6.13;3.17;;;;;;;22.82;61.84;99419.56;2227482;40;20490;-86
2021/07/26 07:22:43;;;;;;;6.05;2.75;;;;;;;23.02;60.03;99413.72;2219902;40;20041;-86
2021/07/26 07:24:13;;;;;;;5.55;3.00;;;;;;;23.18;59.27;99412.97;2220866;40;20042;-87
2021/07/26 07:25:56;;;;;;;5.72;3.28;;;;;;;23.32;58.00;99401.78;2220617;40;20783;-83
2021/07/26 07:27:28;;;;;;;5.43;2.72;;;;;;;23.35;57.97;99413.00;2224055;40;20090;-83
2021/07/26 07:28:59;;;;;;;5.03;2.90;;;;;;;23.50;57.64;99419.81;2225841;40;20053;-86
2021/07/26 07:30:31;;;;;;;13.98;4.13;;;;;;;23.47;57.14;99415.69;2225699;40;20226;-81
2021/07/26 07:32:05;;;;;;;5.90;2.63;;;;;;;23.33;57.33;99422.53;2224806;40;20033;-81
2021/07/26 07:33:38;;;;;;;8.00;3.28;;;;;;;23.42;57.32;99412.88;2226420;40;20067;-85
2021/07/26 07:35:11;;;;;;;10.30;3.45;;;;;;;23.58;56.85;99424.03;2226348;40;20398;-84
2021/07/26 07:37:21;;;;;;;5.32;2.85;;;;;;;23.68;56.98;99425.03;2227730;40;20026;-85
2021/07/26 07:39:19;;;;;;;6.30;2.95;;;;;;;23.88;56.49;99422.91;2214102;40;20030;-84
2021/07/26 07:41:07;;;;;;;8.25;3.53;;;;;;;23.97;56.15;99427.72;2221507;40;20850;-82
2021/07/26 07:45:21;;;;;;;6.00;3.10;;;;;;;23.76;56.71;99418.34;2211852;40;20036;-83
2021/07/26 07:47:36;;;;;;;4.78;3.22;;;;;;;23.83;56.28;99427.19;2220600;40;20113;-84
2021/07/26 07:49:09;;;;;;;5.82;3.30;;;;;;;23.88;56.19;99422.91;2223551;40;20033;-83
2021/07/26 07:50:41;;;;;;;5.65;3.13;;;;;;;23.87;56.19;99415.78;2227048;40;20090;-85
2021/07/26 07:52:15;;;;;;;7.55;3.33;;;;;;;23.93;56.02;99426.56;2222312;40;20029;-82
2021/07/26 07:53:53;;;;;;;7.47;3.03;;;;;;;24.12;55.36;99421.69;2222451;40;20034;-81
2021/07/26 07:55:24;;;;;;;7.35;2.97;;;;;;;24.38;54.68;99434.88;2225422;40;20036;-83
2021/07/26 07:56:56;;;;;;;6.55;3.00;;;;;;;24.53;54.24;99426.09;2225723;40;20233;-85
2021/07/26 07:58:28;;;;;;;8.23;3.47;;;;;;;24.64;53.60;99429.78;2225715;40;20105;-83
2021/07/26 08:22:08;;;;;;;6.28;3.50;;;;;;;25.27;51.05;99429.47;2218585;40;20037;-85
2021/07/26 08:25:25;;;;;;;7.78;3.20;;;;;;;25.47;50.99;99423.41;2231222;40;20054;-83
2021/07/26 08:27:07;;;;;;;7.45;3.45;;;;;;;25.71;50.31;99426.63;2235025;40;20036;-84
2021/07/26 08:28:39;;;;;;;8.55;3.83;;;;;;;25.81;50.25;99434.94;2237624;40;20450;-85
2021/07/26 08:30:15;;;;;;;9.40;4.07;;;;;;;25.73;49.64;99431.84;2239445;40;20093;-84
2021/07/26 08:31:47;;;;;;;6.75;3.25;;;;;;;25.53;49.74;99444.25;2238702;39;20036;-84
2021/07/26 08:33:19;;;;;;;6.78;3.38;;;;;;;25.62;49.67;99429.00;2237855;40;20036;-81
2021/07/26 08:34:51;;;;;;;6.43;3.53;;;;;;;25.74;49.58;99428.84;2238424;40;20043;-82
2021/07/26 08:36:22;;;;;;;6.00;3.08;;;;;;;25.82;49.26;99435.75;2238793;39;20051;-83
2021/07/26 08:37:55;;;;;;;4.20;2.90;;;;;;;25.81;48.97;99439.56;2237463;39;20059;-82
2021/07/26 08:39:26;;;;;;;5.60;2.88;;;;;;;26.03;48.36;99435.91;2239763;39;20043;-85
2021/07/26 08:40:58;;;;;;;5.22;3.30;;;;;;;25.96;48.58;99426.03;2238023;40;20032;-83
2021/07/26 08:42:30;;;;;;;5.72;3.38;;;;;;;25.98;48.96;99423.84;2237667;40;20035;-83
2021/07/26 08:44:02;;;;;;;7.82;3.13;;;;;;;26.15;48.99;99433.88;2239607;40;20044;-85
2021/07/26 08:45:34;;;;;;;7.05;3.45;;;;;;;26.28;48.46;99433.38;2236527;40;20032;-83
2021/07/26 08:47:05;;;;;;;5.30;3.17;;;;;;;26.28;47.67;99436.13;2238784;40;20029;-82
2021/07/26 08:48:37;;;;;;;6.53;2.80;;;;;;;26.63;47.55;99434.72;2238770;40;20317;-84
2021/07/26 08:50:11;;;;;;;5.93;2.83;;;;;;;27.07;46.28;99432.72;2237801;39;20481;-84
2021/07/26 08:51:45;;;;;;;5.90;3.20;;;;;;;27.32;45.66;99431.13;2238122;40;20113;-83
2021/07/26 08:53:21;;;;;;;5.45;3.13;;;;;;;27.58;44.86;99437.50;2239012;40;20031;-84
2021/07/26 08:55:05;;;;;;;6.15;3.17;;;;;;;27.66;43.79;99428.72;2238639;39;20098;-83
2021/07/26 08:56:41;;;;;;;5.10;3.03;;;;;;;27.72;43.63;99429.56;2240752;39;20035;-84
2021/07/26 08:58:12;;;;;;;4.93;3.03;;;;;;;27.84;43.49;99435.63;2243171;39;20063;-84
2021/07/26 08:59:46;;;;;;;7.93;2.92;;;;;;;27.74;43.74;99432.88;2239637;39;20030;-85
2021/07/26 09:01:18;;;;;;;5.85;2.70;;;;;;;27.41;44.03;99429.50;2240032;39;20056;-84
2021/07/26 09:02:50;;;;;;;6.78;2.95;;;;;;;27.33;43.82;99430.03;2240022;39;20032;-86
2021/07/26 09:04:22;;;;;;;5.22;2.80;;;;;;;27.35;43.43;99427.84;2239177;39;20032;-85
2021/07/26 09:05:53;;;;;;;4.78;3.03;;;;;;;27.59;42.99;99432.84;2219265;40;20041;-85
2021/07/26 09:07:27;;;;;;;7.10;3.25;;;;;;;27.89;42.85;99436.69;2216532;40;20060;-83
2021/07/26 09:09:00;;;;;;;6.57;3.28;;;;;;;27.71;42.19;99433.41;2235344;40;20021;-85
2021/07/26 09:10:35;;;;;;;5.93;3.15;;;;;;;27.62;42.52;99429.56;2231402;40;20134;-82
2021/07/26 09:12:07;;;;;;;5.45;2.70;;;;;;;27.86;41.88;99421.59;2238631;40;20032;-83
2021/07/26 09:13:44;;;;;;;5.22;2.63;;;;;;;28.12;41.67;99435.34;2238627;39;20042;-83
2021/07/26 09:15:28;;;;;;;6.10;2.95;;;;;;;28.40;41.38;99431.19;2238231;40;20043;-83
2021/07/26 09:17:00;;;;;;;5.38;3.20;;;;;;;28.52;41.46;99421.81;2231712;40;20039;-83
2021/07/26 09:18:32;;;;;;;4.68;2.55;;;;;;;28.71;41.47;99428.38;2235865;40;20051;-82
2021/07/26 09:20:04;;;;;;;5.25;2.75;;;;;;;28.97;40.87;99425.50;2237814;40;20068;-82
2021/07/26 09:21:50;;;;;;;7.78;3.60;;;;;;;29.21;40.69;99422.06;2238958;40;20076;-84
2021/07/26 09:23:22;;;;;;;7.03;2.90;;;;;;;29.11;39.83;99429.28;2232567;40;20515;-83
2021/07/26 09:25:14;;;;;;;6.63;3.33;;;;;;;28.62;40.37;99425.34;2233637;40;20483;-87
2021/07/26 09:26:46;;;;;;;9.15;2.75;;;;;;;28.52;40.64;99421.81;2232899;40;20188;-83
2021/07/26 09:28:20;;;;;;;4.97;2.80;;;;;;;28.43;40.82;99424.31;2239493;40;20028;-86
2021/07/26 09:29:51;;;;;;;6.10;3.05;;;;;;;28.44;40.81;99418.50;2240158;39;20039;-84
2021/07/26 09:31:24;;;;;;;5.47;2.95;;;;;;;28.63;40.68;99424.25;2239765;40;20044;-86
2021/07/26 09:33:01;;;;;;;5.43;3.08;;;;;;;28.82;39.96;99426.41;2240291;39;20017;-86
2021/07/26 09:34:40;;;;;;;5.38;2.83;;;;;;;28.82;39.58;99420.91;2239722;39;20028;-84
2021/07/26 09:36:13;;;;;;;4.40;2.78;;;;;;;28.93;38.68;99421.66;2238314;39;20082;-84
2021/07/26 09:37:55;;;;;;;7.10;2.80;;;;;;;28.71;39.09;99422.88;2233209;40;20103;-83
2021/07/26 09:39:27;;;;;;;6.97;2.55;;;;;;;28.62;39.03;99414.34;2233360;39;20094;-83
2021/07/26 09:41:02;;;;;;;6.63;2.50;;;;;;;28.70;39.13;99423.94;2232686;39;20037;-86
2021/07/26 09:42:34;;;;;;;4.90;2.90;;;;;;;28.88;39.08;99421.72;2234420;39;20012;-87
2021/07/26 09:44:08;;;;;;;8.70;2.80;;;;;;;29.00;38.91;99416.69;2234181;39;20032;-84
2021/07/26 09:45:41;;;;;;;5.57;2.60;;;;;;;29.18;38.49;99417.16;2226909;40;20102;-84
2021/07/26 09:47:20;;;;;;;6.88;2.78;;;;;;;29.50;37.91;99415.88;2231963;39;20049;-85
2021/07/26 09:49:10;;;;;;;4.85;2.88;;;;;;;29.63;37.27;99420.72;2234025;39;20348;-85
2021/07/26 09:50:44;;;;;;;8.68;4.57;;;;;;;29.44;37.68;99406.81;2232688;40;20024;-84
2021/07/26 09:52:21;;;;;;;6.72;3.25;;;;;;;29.33;37.95;99408.00;2230489;40;20428;-82
2021/07/26 09:53:53;;;;;;;7.97;2.97;;;;;;;29.23;38.01;99411.59;2232314;40;20031;-81
2021/07/26 09:55:29;;;;;;;6.97;2.80;;;;;;;29.32;37.82;99418.19;2237774;39;20031;-82
2021/07/26 09:57:17;;;;;;;5.40;2.80;;;;;;;29.53;37.58;99407.03;2212397;39;20052;-83
2021/07/26 09:58:50;;;;;;;6.25;2.58;;;;;;;29.66;36.98;99411.88;2219892;40;20022;-87
2021/07/26 10:00:22;;;;;;;6.80;2.72;;;;;;;29.63;37.23;99406.97;2221525;40;20045;-83
2021/07/26 10:01:55;;;;;;;4.93;2.70;;;;;;;29.27;37.81;99401.69;2221173;40;20104;-85
2021/07/26 10:03:28;;;;;;;3.88;2.33;;;;;;;29.14;38.83;99411.41;2220082;40;20037;-85
2021/07/26 10:05:03;;;;;;;7.22;3.97;;;;;;;29.18;38.73;99397.91;2218871;40;20033;-84
2021/07/26 10:06:35;;;;;;;5.30;2.70;;;;;;;29.36;38.52;99394.50;2210939;40;20084;-84
2021/07/26 10:08:07;;;;;;;5.50;2.80;;;;;;;29.66;37.53;99400.84;2221310;40;20030;-85
2021/07/26 10:09:41;;;;;;;8.52;3.13;;;;;;;29.88;37.34;99394.91;2221515;40;20050;-85
2021/07/26 10:11:15;;;;;;;5.30;2.65;;;;;;;29.51;37.33;99392.72;2219913;40;20087;-85
2021/07/26 10:12:48;;;;;;;4.47;2.40;;;;;;;29.27;37.88;99393.44;2216185;40;20882;-85
2021/07/26 10:14:23;;;;;;;5.63;2.67;;;;;;;29.54;37.44;99403.19;2214292;40;20045;-84
2021/07/26 10:15:56;;;;;;;5.60;2.65;;;;;;;29.56;37.34;99396.28;2212401;40;20084;-83
2021/07/26 10:17:27;;;;;;;4.30;2.30;;;;;;;29.44;37.54;99386.75;2220925;40;20029;-88
2021/07/26 10:18:58;;;;;;;5.57;2.58;;;;;;;29.30;37.40;99392.84;2220772;40;20048;-87
2021/07/26 10:20:31;;;;;;;6.32;3.08;;;;;;;29.23;37.79;99386.84;2221694;40;20025;-84
2021/07/26 10:22:07;;;;;;;4.65;2.80;;;;;;;29.35;37.73;99381.84;2208819;40;20031;-87
2021/07/26 10:23:45;;;;;;;5.35;2.60;;;;;;;29.24;37.87;99383.00;2211858;40;20065;-84
2021/07/26 10:25:20;;;;;;;7.07;2.53;;;;;;;29.04;38.55;99393.00;2212833;40;20026;-86
2021/07/26 10:26:58;;;;;;;4.78;2.30;;;;;;;29.30;38.07;99379.09;2212854;40;20069;-86
2021/07/26 10:28:34;;;;;;;4.85;2.53;;;;;;;29.63;37.61;99378.59;2215294;40;20457;-88
2021/07/26 10:50:19;;;;;;;4.95;2.60;;;;;;;29.24;37.50;99358.22;2227286;40;20057;-84
2021/07/26 10:51:51;;;;;;;5.30;2.78;;;;;;;29.27;37.52;99371.41;2222136;40;20037;-84
2021/07/26 10:53:58;;;;;;;5.15;2.40;;;;;;;29.57;37.07;99359.38;2209199;40;20030;-86
2021/07/26 10:56:03;;;;;;;6.47;2.63;;;;;;;29.87;36.27;99353.88;2215474;40;20629;-84
2021/07/26 10:58:00;;;;;;;4.72;2.65;;;;;;;29.98;36.17;99352.69;2228594;40;20047;-87
2021/07/26 10:59:56;;;;;;;4.65;2.45;;;;;;;29.51;37.00;99352.28;2215593;40;20736;-85
2021/07/26 11:01:58;;;;;;;9.98;3.05;;;;;;;29.17;37.82;99368.72;2214652;40;20030;-89
2021/07/26 11:03:42;;;;;;;5.18;2.80;;;;;;;28.79;38.69;99374.72;2222358;40;20025;-85